Esbjerg, Denmark
Current Conditions -  °F | °C
As of 6:50 PM on Saturday 20 Dec 2014 (Local Time) from EKEB Reporting Station
Rain Showers Rain Showers  
Wind Chill: 31°   Ceiling: 2000
Heat Index: 41°   Visibility: 6mi
Dew Point: 36°   Wind: 23mph
Humidity: 81%   Direction: 290°WNW
Pressure: 29.74"   Gusts: 46mph
Location:  55.47°N, 8.45°E
Report Text: EKEB 201750Z AUTO 29020G40KT 250V310 9000NDV -SHRA BKN020///05/02 Q1007
Loading
Personal Weather Stations






























Interactive Weather Map New forecast layout! Learn more

10-Day Weather Forecast

Advertisements
Track Severe Weather on mobile